Time;durP1;ratioP1;P1;durP2;ratioP2;P2;SDS_P1;SDS_P2;PMS_P1;PMS_P2;Temp;Humidity;BMP_temperature;BMP_pressure;BME280_temperature;BME280_humidity;BME280_pressure;Samples;Min_cycle;Max_cycle;Signal;HPM_P1;HPM_P2
2023/06/24 00:01:18;;;;;;;;;;;;;;;;;;5053393;28;19925;-64
2023/06/24 00:03:46;;;;;;;;;;;;;;;;;;5073160;28;20023;-64
2023/06/24 00:06:18;;;;;;;;;;;;;;;;;;5071992;28;19932;-64
2023/06/24 00:08:44;;;;;;;;;;;;;;;;;;5039269;28;19968;-64
2023/06/24 00:11:10;;;;;;;;;;;;;;;;;;5067388;28;20389;-64
2023/06/24 00:13:37;;;;;;;;;;;;;;;;;;5071975;28;19924;-64
2023/06/24 00:16:03;;;;;;;;;;;;;;;;;;5068038;28;19920;-64
2023/06/24 00:18:29;;;;;;;;;;;;;;;;;;5071202;28;20300;-63
2023/06/24 00:20:55;;;;;;;;;;;;;;;;;;5073010;28;20288;-63
2023/06/24 00:23:24;;;;;;;;;;;;;;;;;;5071558;28;19924;-63
2023/06/24 00:25:50;;;;;;;;;;;;;;;;;;5068980;28;19920;-63
2023/06/24 00:28:16;;;;;;;;;;;;;;;;;;5073159;28;20019;-63
2023/06/24 00:30:42;;;;;;;;;;;;;;;;;;5073225;28;20328;-63
2023/06/24 00:33:10;;;;;;;;;;;;;;;;;;5072874;28;20034;-63
2023/06/24 00:35:37;;;;;;;;;;;;;;;;;;5055831;28;19920;-63
2023/06/24 00:38:03;;;;;;;;;;;;;;;;;;5054315;28;19928;-63
2023/06/24 00:40:29;;;;;;;;;;;;;;;;;;5061020;28;19947;-63
2023/06/24 00:42:55;;;;;;;;;;;;;;;;;;5068977;28;19925;-63
2023/06/24 00:45:21;;;;;;;;;;;;;;;;;;5071902;28;19924;-63
2023/06/24 00:47:46;;;;;;;;;;;;;;;;;;5055083;28;20002;-63
2023/06/24 00:50:12;;;;;;;;;;;;;;;;;;5073461;28;19928;-63
2023/06/24 00:52:42;;;;;;;;;;;;;;;;;;5054295;28;19929;-64
2023/06/24 00:55:08;;;;;;;;;;;;;;;;;;5071494;28;19971;-64
2023/06/24 00:57:34;;;;;;;;;;;;;;;;;;5055572;28;20445;-63
2023/06/24 01:00:00;;;;;;;;;;;;;;;;;;5054846;28;19920;-63
2023/06/24 01:02:27;;;;;;;;;;;;;;;;;;5072873;28;19929;-63
2023/06/24 01:04:53;;;;;;;;;;;;;;;;;;5072414;28;20385;-63
2023/06/24 01:07:19;;;;;;;;;;;;;;;;;;5053281;28;19975;-63
2023/06/24 01:09:45;;;;;;;;;;;;;;;;;;5074393;28;19924;-63
2023/06/24 01:12:11;;;;;;;;;;;;;;;;;;5069772;28;19925;-63
2023/06/24 01:14:37;;;;;;;;;;;;;;;;;;5071394;28;20386;-63
2023/06/24 01:17:03;;;;;;;;;;;;;;;;;;5051860;28;20392;-63
2023/06/24 01:19:29;;;;;;;;;;;;;;;;;;5071773;28;19924;-63
2023/06/24 01:21:55;;;;;;;;;;;;;;;;;;5071751;28;19939;-63
2023/06/24 01:24:21;;;;;;;;;;;;;;;;;;5071583;28;20456;-63
2023/06/24 01:26:46;;;;;;;;;;;;;;;;;;5052495;28;19973;-63
2023/06/24 01:29:12;;;;;;;;;;;;;;;;;;5051578;28;19929;-63
2023/06/24 01:31:38;;;;;;;;;;;;;;;;;;5072174;28;19925;-63
2023/06/24 01:34:06;;;;;;;;;;;;;;;;;;5072496;28;19927;-63
2023/06/24 01:36:32;;;;;;;;;;;;;;;;;;5069735;28;19988;-63
2023/06/24 01:38:58;;;;;;;;;;;;;;;;;;5070628;28;20011;-63
2023/06/24 01:41:24;;;;;;;;;;;;;;;;;;5071891;28;19924;-63
2023/06/24 01:43:49;;;;;;;;;;;;;;;;;;5067779;28;20385;-63
2023/06/24 01:46:15;;;;;;;;;;;;;;;;;;5047842;28;19924;-63
2023/06/24 01:48:41;;;;;;;;;;;;;;;;;;5071980;28;20393;-63
2023/06/24 01:51:07;;;;;;;;;;;;;;;;;;5070952;28;19924;-63
2023/06/24 01:53:33;;;;;;;;;;;;;;;;;;5037396;28;19976;-63
2023/06/24 01:55:59;;;;;;;;;;;;;;;;;;5071753;28;20013;-64
2023/06/24 01:58:25;;;;;;;;;;;;;;;;;;5069840;28;20365;-64
2023/06/24 02:00:51;;;;;;;;;;;;;;;;;;5068758;28;19920;-64
2023/06/24 02:03:17;;;;;;;;;;;;;;;;;;5070588;28;19935;-64
2023/06/24 02:05:43;;;;;;;;;;;;;;;;;;5069703;28;19937;-64
2023/06/24 02:08:09;;;;;;;;;;;;;;;;;;5052848;28;20349;-64
2023/06/24 02:10:35;;;;;;;;;;;;;;;;;;5070066;28;19955;-64
2023/06/24 02:13:01;;;;;;;;;;;;;;;;;;5069864;28;19950;-63
2023/06/24 02:15:26;;;;;;;;;;;;;;;;;;5050985;28;19928;-63
2023/06/24 02:17:56;;;;;;;;;;;;;;;;;;5065399;28;20359;-63
2023/06/24 02:20:26;;;;;;;;;;;;;;;;;;5067718;28;19959;-63
2023/06/24 02:22:52;;;;;;;;;;;;;;;;;;5069273;28;19986;-63
2023/06/24 02:25:18;;;;;;;;;;;;;;;;;;5053541;28;20457;-63
2023/06/24 02:27:44;;;;;;;;;;;;;;;;;;5071587;28;19931;-63
2023/06/24 02:30:10;;;;;;;;;;;;;;;;;;5065822;28;20536;-63
2023/06/24 02:32:38;;;;;;;;;;;;;;;;;;5050381;28;19994;-63
2023/06/24 02:35:04;;;;;;;;;;;;;;;;;;5068838;28;19974;-63
2023/06/24 02:37:29;;;;;;;;;;;;;;;;;;5050980;28;19920;-63
2023/06/24 02:39:55;;;;;;;;;;;;;;;;;;5071632;28;19939;-63
2023/06/24 02:42:21;;;;;;;;;;;;;;;;;;5070418;28;20530;-63
2023/06/24 02:44:47;;;;;;;;;;;;;;;;;;5070074;28;19920;-63
2023/06/24 02:47:13;;;;;;;;;;;;;;;;;;5066794;28;19924;-63
2023/06/24 02:49:39;;;;;;;;;;;;;;;;;;5069312;28;19971;-64
2023/06/24 02:52:05;;;;;;;;;;;;;;;;;;5050141;28;19929;-63
2023/06/24 02:54:31;;;;;;;;;;;;;;;;;;5068532;28;19924;-63
2023/06/24 02:56:57;;;;;;;;;;;;;;;;;;5070498;28;19931;-64
2023/06/24 02:59:23;;;;;;;;;;;;;;;;;;5069929;28;20374;-64
2023/06/24 03:01:49;;;;;;;;;;;;;;;;;;5066606;28;19931;-63
2023/06/24 03:04:15;;;;;;;;;;;;;;;;;;5050572;28;19959;-63
2023/06/24 03:06:41;;;;;;;;;;;;;;;;;;5068875;28;20481;-63
2023/06/24 03:09:07;;;;;;;;;;;;;;;;;;5068701;28;19920;-63
2023/06/24 03:11:33;;;;;;;;;;;;;;;;;;5027099;28;19964;-63
2023/06/24 03:13:59;;;;;;;;;;;;;;;;;;5043747;28;20012;-63
2023/06/24 03:16:25;;;;;;;;;;;;;;;;;;5047821;28;20398;-63
2023/06/24 03:18:51;;;;;;;;;;;;;;;;;;5051755;28;19967;-63
2023/06/24 03:21:16;;;;;;;;;;;;;;;;;;5030115;28;19928;-63
2023/06/24 03:23:43;;;;;;;;;;;;;;;;;;5047252;28;19925;-62
2023/06/24 03:26:09;;;;;;;;;;;;;;;;;;5050901;28;20260;-63
2023/06/24 03:28:34;;;;;;;;;;;;;;;;;;5047938;28;19921;-63
2023/06/24 03:31:00;;;;;;;;;;;;;;;;;;5051586;28;19929;-64
2023/06/24 03:33:27;;;;;;;;;;;;;;;;;;5051487;28;20012;-64
2023/06/24 03:35:53;;;;;;;;;;;;;;;;;;5065672;28;19944;-64
2023/06/24 03:38:19;;;;;;;;;;;;;;;;;;5067031;28;19979;-64
2023/06/24 03:40:45;;;;;;;;;;;;;;;;;;5047296;28;20727;-64
2023/06/24 03:43:11;;;;;;;;;;;;;;;;;;5068346;28;20305;-64
2023/06/24 03:45:37;;;;;;;;;;;;;;;;;;5067763;28;19921;-64
2023/06/24 03:48:03;;;;;;;;;;;;;;;;;;5035746;28;20361;-64
2023/06/24 03:50:29;;;;;;;;;;;;;;;;;;5066298;28;20015;-63
2023/06/24 03:52:55;;;;;;;;;;;;;;;;;;5039443;28;19974;-64
2023/06/24 03:55:21;;;;;;;;;;;;;;;;;;5044252;28;20367;-64
2023/06/24 03:57:46;;;;;;;;;;;;;;;;;;5036849;28;19928;-64
2023/06/24 04:00:15;;;;;;;;;;;;;;;;;;5065027;28;20027;-64
2023/06/24 04:02:41;;;;;;;;;;;;;;;;;;5045724;28;19936;-64
2023/06/24 04:05:07;;;;;;;;;;;;;;;;;;5052326;28;20015;-64
2023/06/24 04:07:35;;;;;;;;;;;;;;;;;;5063079;28;20006;-64
2023/06/24 04:10:01;;;;;;;;;;;;;;;;;;5048758;28;19928;-64
2023/06/24 04:12:27;;;;;;;;;;;;;;;;;;5051362;28;19920;-64
2023/06/24 04:14:53;;;;;;;;;;;;;;;;;;5064170;28;19929;-64
2023/06/24 04:17:19;;;;;;;;;;;;;;;;;;5069166;28;19966;-64
2023/06/24 04:19:44;;;;;;;;;;;;;;;;;;5067427;28;19924;-64
2023/06/24 04:22:10;;;;;;;;;;;;;;;;;;5068650;28;19932;-64
2023/06/24 04:24:36;;;;;;;;;;;;;;;;;;5070197;28;19952;-64
2023/06/24 04:27:02;;;;;;;;;;;;;;;;;;5069955;28;19928;-64
2023/06/24 04:29:28;;;;;;;;;;;;;;;;;;5069119;28;19921;-64
2023/06/24 04:31:54;;;;;;;;;;;;;;;;;;5069871;28;19947;-64
2023/06/24 04:34:20;;;;;;;;;;;;;;;;;;5050870;28;19925;-64
2023/06/24 04:36:46;;;;;;;;;;;;;;;;;;5049785;28;19927;-64
2023/06/24 04:39:12;;;;;;;;;;;;;;;;;;5070261;28;19932;-64
2023/06/24 04:41:38;;;;;;;;;;;;;;;;;;5064049;28;20378;-64
2023/06/24 04:44:05;;;;;;;;;;;;;;;;;;5069790;28;19978;-64
2023/06/24 04:46:32;;;;;;;;;;;;;;;;;;5067740;28;19927;-64
2023/06/24 04:48:58;;;;;;;;;;;;;;;;;;5070187;28;19928;-64
2023/06/24 04:51:24;;;;;;;;;;;;;;;;;;5071889;28;19928;-64
2023/06/24 04:53:50;;;;;;;;;;;;;;;;;;5072956;28;19924;-64
2023/06/24 04:56:16;;;;;;;;;;;;;;;;;;5037216;28;19924;-64
2023/06/24 04:58:42;;;;;;;;;;;;;;;;;;5068383;28;19927;-62
2023/06/24 05:01:07;;;;;;;;;;;;;;;;;;5052588;28;20074;-63
2023/06/24 05:03:33;;;;;;;;;;;;;;;;;;5070691;28;19934;-63
2023/06/24 05:05:59;;;;;;;;;;;;;;;;;;5072778;28;19977;-63
2023/06/24 05:08:25;;;;;;;;;;;;;;;;;;5072576;28;20434;-63
2023/06/24 05:10:51;;;;;;;;;;;;;;;;;;5045442;28;20003;-63
2023/06/24 05:13:17;;;;;;;;;;;;;;;;;;5072022;28;19920;-63
2023/06/24 05:15:43;;;;;;;;;;;;;;;;;;5064977;28;19981;-63
2023/06/24 05:18:09;;;;;;;;;;;;;;;;;;5072001;28;19924;-63
2023/06/24 05:20:35;;;;;;;;;;;;;;;;;;5070767;28;19928;-63
2023/06/24 05:23:00;;;;;;;;;;;;;;;;;;5053361;28;20418;-63
2023/06/24 05:25:26;;;;;;;;;;;;;;;;;;5072903;28;20009;-63
2023/06/24 05:27:52;;;;;;;;;;;;;;;;;;5055939;28;19920;-63
2023/06/24 05:30:18;;;;;;;;;;;;;;;;;;5052996;28;19927;-62
2023/06/24 05:32:44;;;;;;;;;;;;;;;;;;5072600;28;19920;-63
2023/06/24 05:35:10;;;;;;;;;;;;;;;;;;5070849;28;19980;-63
2023/06/24 05:37:36;;;;;;;;;;;;;;;;;;5072176;28;19921;-63
2023/06/24 05:40:02;;;;;;;;;;;;;;;;;;5069892;28;20025;-63
2023/06/24 05:42:28;;;;;;;;;;;;;;;;;;5071568;28;20655;-64
2023/06/24 05:44:54;;;;;;;;;;;;;;;;;;5072643;28;20017;-64
2023/06/24 05:47:20;;;;;;;;;;;;;;;;;;5071579;28;19920;-64
2023/06/24 05:49:46;;;;;;;;;;;;;;;;;;5070882;28;19927;-62
2023/06/24 05:52:12;;;;;;;;;;;;;;;;;;5069713;28;19933;-64
2023/06/24 05:54:37;;;;;;;;;;;;;;;;;;5072598;28;20380;-63
2023/06/24 05:57:06;;;;;;;;;;;;;;;;;;5071330;28;19932;-64
2023/06/24 05:59:31;;;;;;;;;;;;;;;;;;5071839;28;19921;-64
2023/06/24 06:01:57;;;;;;;;;;;;;;;;;;5065570;28;19931;-64
2023/06/24 06:04:23;;;;;;;;;;;;;;;;;;5070862;28;20373;-64
2023/06/24 06:06:49;;;;;;;;;;;;;;;;;;5060589;22;19929;-62
2023/06/24 06:09:15;;;;;;;;;;;;;;;;;;5027485;28;20449;-62
2023/06/24 06:11:41;;;;;;;;;;;;;;;;;;5011570;28;20020;-62
2023/06/24 06:14:07;;;;;;;;;;;;;;;;;;4995177;28;20319;-62
2023/06/24 06:16:33;;;;;;;;;;;;;;;;;;5015479;28;19957;-62
2023/06/24 06:18:59;;;;;;;;;;;;;;;;;;5012842;28;19922;-61
2023/06/24 06:21:25;;;;;;;;;;;;;;;;;;5010063;28;20726;-62
2023/06/24 06:23:51;;;;;;;;;;;;;;;;;;5003286;28;19937;-62
2023/06/24 06:26:17;;;;;;;;;;;;;;;;;;4996491;28;20008;-62
2023/06/24 06:28:43;;;;;;;;;;;;;;;;;;5012307;28;19921;-61
2023/06/24 06:31:09;;;;;;;;;;;;;;;;;;5011564;28;20287;-61
2023/06/24 06:33:35;;;;;;;;;;;;;;;;;;4991826;28;19995;-61
2023/06/24 06:36:01;;;;;;;;;;;;;;;;;;4994721;28;19929;-62
2023/06/24 06:38:27;;;;;;;;;;;;;;;;;;5009930;28;19928;-61
2023/06/24 06:40:53;;;;;;;;;;;;;;;;;;5022014;28;20351;-62
2023/06/24 06:43:19;;;;;;;;;;;;;;;;;;5021224;28;19933;-62
2023/06/24 06:45:44;;;;;;;;;;;;;;;;;;5004816;28;20006;-62
2023/06/24 06:48:10;;;;;;;;;;;;;;;;;;4975369;28;19929;-62
2023/06/24 06:50:36;;;;;;;;;;;;;;;;;;4999870;28;20345;-62
2023/06/24 06:53:02;;;;;;;;;;;;;;;;;;5012792;28;19925;-62
2023/06/24 06:55:28;;;;;;;;;;;;;;;;;;5008981;28;19921;-62
2023/06/24 06:57:55;;;;;;;;;;;;;;;;;;5008809;28;19933;-62
2023/06/24 07:00:21;;;;;;;;;;;;;;;;;;5010904;28;19926;-62
2023/06/24 07:02:47;;;;;;;;;;;;;;;;;;5011079;28;19975;-62
2023/06/24 07:05:13;;;;;;;;;;;;;;;;;;5005320;28;19972;-61
2023/06/24 07:07:38;;;;;;;;;;;;;;;;;;5009028;28;20016;-61
2023/06/24 07:10:04;;;;;;;;;;;;;;;;;;5010979;28;20264;-62
2023/06/24 07:12:30;;;;;;;;;;;;;;;;;;5004841;28;19922;-62
2023/06/24 07:14:56;;;;;;;;;;;;;;;;;;5007832;28;20442;-62
2023/06/24 07:17:22;;;;;;;;;;;;;;;;;;4991864;28;20008;-63
2023/06/24 07:19:48;;;;;;;;;;;;;;;;;;5009644;28;19976;-62
2023/06/24 07:22:14;;;;;;;;;;;;;;;;;;4998407;28;19925;-62
2023/06/24 07:24:40;;;;;;;;;;;;;;;;;;5010363;28;19933;-62
2023/06/24 07:27:06;;;;;;;;;;;;;;;;;;5010525;28;19939;-62
2023/06/24 07:29:34;;;;;;;;;;;;;;;;;;5006941;28;21482;-63
2023/06/24 07:31:59;;;;;;;;;;;;;;;;;;5009183;28;19947;-62
2023/06/24 07:34:25;;;;;;;;;;;;;;;;;;5010810;28;19932;-61
2023/06/24 07:36:51;;;;;;;;;;;;;;;;;;5007933;28;19921;-62
2023/06/24 07:39:17;;;;;;;;;;;;;;;;;;4991781;28;20367;-62
2023/06/24 07:41:43;;;;;;;;;;;;;;;;;;5013876;28;19983;-62
2023/06/24 07:44:09;;;;;;;;;;;;;;;;;;4984907;28;19968;-62
2023/06/24 07:46:35;;;;;;;;;;;;;;;;;;4989943;28;19922;-62
2023/06/24 07:49:01;;;;;;;;;;;;;;;;;;5010758;28;20020;-62
2023/06/24 07:51:27;;;;;;;;;;;;;;;;;;5007859;28;19960;-62
2023/06/24 07:53:53;;;;;;;;;;;;;;;;;;5008747;28;19928;-62
2023/06/24 07:56:19;;;;;;;;;;;;;;;;;;5003559;28;19922;-62
2023/06/24 07:58:45;;;;;;;;;;;;;;;;;;5006149;28;19926;-62
2023/06/24 08:01:11;;;;;;;;;;;;;;;;;;5005407;28;19941;-62
2023/06/24 08:03:37;;;;;;;;;;;;;;;;;;4990962;28;19921;-63
2023/06/24 08:06:05;;;;;;;;;;;;;;;;;;4986955;28;19926;-63
2023/06/24 08:08:31;;;;;;;;;;;;;;;;;;4983743;28;19967;-62
2023/06/24 08:10:57;;;;;;;;;;;;;;;;;;4983539;28;19930;-62
2023/06/24 08:13:23;;;;;;;;;;;;;;;;;;4988360;28;19932;-63
2023/06/24 08:15:49;;;;;;;;;;;;;;;;;;4987162;28;19922;-62
2023/06/24 08:18:15;;;;;;;;;;;;;;;;;;4988061;28;19922;-62
2023/06/24 08:20:41;;;;;;;;;;;;;;;;;;4987459;28;19965;-61
2023/06/24 08:23:06;;;;;;;;;;;;;;;;;;4995178;28;19926;-61
2023/06/24 08:25:32;;;;;;;;;;;;;;;;;;4992691;28;19928;-61
2023/06/24 08:27:58;;;;;;;;;;;;;;;;;;4993662;28;19966;-61
2023/06/24 08:30:24;;;;;;;;;;;;;;;;;;4993092;28;20327;-62
2023/06/24 08:32:50;;;;;;;;;;;;;;;;;;4995029;28;19933;-62
2023/06/24 08:35:16;;;;;;;;;;;;;;;;;;4993154;28;19922;-61
2023/06/24 08:37:42;;;;;;;;;;;;;;;;;;4992680;28;19988;-61
2023/06/24 08:40:08;;;;;;;;;;;;;;;;;;4980068;28;20028;-62
2023/06/24 08:42:34;;;;;;;;;;;;;;;;;;4973959;28;19937;-61
2023/06/24 08:45:00;;;;;;;;;;;;;;;;;;4994060;28;19922;-61
2023/06/24 08:47:26;;;;;;;;;;;;;;;;;;4990842;28;19936;-62
2023/06/24 08:49:53;;;;;;;;;;;;;;;;;;4993758;28;19926;-62
2023/06/24 08:52:19;;;;;;;;;;;;;;;;;;4992822;28;19921;-62
2023/06/24 08:54:45;;;;;;;;;;;;;;;;;;4993553;28;20437;-62
2023/06/24 08:57:14;;;;;;;;;;;;;;;;;;4992444;28;19968;-62
2023/06/24 08:59:40;;;;;;;;;;;;;;;;;;4990222;28;19921;-62
2023/06/24 09:02:06;;;;;;;;;;;;;;;;;;4993473;28;19932;-62
2023/06/24 09:04:32;;;;;;;;;;;;;;;;;;4992024;28;20332;-62
2023/06/24 09:06:58;;;;;;;;;;;;;;;;;;5004740;28;20356;-62
2023/06/24 09:09:24;;;;;;;;;;;;;;;;;;4993920;28;19928;-61
2023/06/24 09:11:50;;;;;;;;;;;;;;;;;;5010389;28;20012;-61
2023/06/24 09:14:15;;;;;;;;;;;;;;;;;;5010357;28;19973;-61
2023/06/24 09:16:41;;;;;;;;;;;;;;;;;;4994071;28;19921;-61
2023/06/24 09:19:07;;;;;;;;;;;;;;;;;;5025637;28;20015;-61
2023/06/24 09:21:34;;;;;;;;;;;;;;;;;;5014371;28;19948;-61
2023/06/24 09:24:00;;;;;;;;;;;;;;;;;;5011555;28;19921;-62
2023/06/24 09:26:26;;;;;;;;;;;;;;;;;;5011180;28;19928;-62
2023/06/24 09:28:52;;;;;;;;;;;;;;;;;;5013794;28;19925;-61
2023/06/24 09:31:18;;;;;;;;;;;;;;;;;;4973606;28;20008;-62
2023/06/24 09:33:44;;;;;;;;;;;;;;;;;;5014132;28;19975;-62
2023/06/24 09:36:10;;;;;;;;;;;;;;;;;;5010817;28;19922;-62
2023/06/24 09:38:36;;;;;;;;;;;;;;;;;;5013068;28;20385;-61
2023/06/24 09:41:02;;;;;;;;;;;;;;;;;;5011153;28;19932;-61
2023/06/24 09:43:28;;;;;;;;;;;;;;;;;;5012908;28;19925;-61
2023/06/24 09:45:54;;;;;;;;;;;;;;;;;;5003718;28;20366;-61
2023/06/24 09:48:20;;;;;;;;;;;;;;;;;;5013183;28;19925;-62
2023/06/24 09:50:45;;;;;;;;;;;;;;;;;;5010669;28;20076;-62
2023/06/24 09:53:11;;;;;;;;;;;;;;;;;;5013691;28;19921;-62
2023/06/24 09:55:43;;;;;;;;;;;;;;;;;;4992641;28;19953;-61
2023/06/24 09:58:09;;;;;;;;;;;;;;;;;;5013689;28;19921;-61
2023/06/24 10:00:35;;;;;;;;;;;;;;;;;;4995503;28;19926;-61
2023/06/24 10:03:01;;;;;;;;;;;;;;;;;;5012250;28;19925;-61
2023/06/24 10:05:27;;;;;;;;;;;;;;;;;;5009221;28;19929;-61
2023/06/24 10:07:52;;;;;;;;;;;;;;;;;;5011946;28;19921;-61
2023/06/24 10:10:18;;;;;;;;;;;;;;;;;;5012999;28;20119;-61
2023/06/24 10:12:44;;;;;;;;;;;;;;;;;;4991123;28;19929;-62
2023/06/24 10:15:11;;;;;;;;;;;;;;;;;;5010463;28;19963;-62
2023/06/24 10:17:37;;;;;;;;;;;;;;;;;;4995130;28;19925;-61
2023/06/24 10:20:03;;;;;;;;;;;;;;;;;;4996620;28;20363;-61
2023/06/24 10:22:29;;;;;;;;;;;;;;;;;;5016517;28;19948;-61
2023/06/24 10:24:56;;;;;;;;;;;;;;;;;;5009481;28;20352;-61
2023/06/24 10:27:22;;;;;;;;;;;;;;;;;;5005339;28;20323;-60
2023/06/24 10:29:48;;;;;;;;;;;;;;;;;;4986310;28;19948;-62
2023/06/24 10:32:14;;;;;;;;;;;;;;;;;;4993518;28;19926;-61
2023/06/24 10:34:41;;;;;;;;;;;;;;;;;;4999663;28;19975;-61
2023/06/24 10:37:07;;;;;;;;;;;;;;;;;;5011115;28;20371;-61
2023/06/24 10:39:33;;;;;;;;;;;;;;;;;;4993469;28;19976;-62
2023/06/24 10:41:59;;;;;;;;;;;;;;;;;;5011720;28;19973;-62
2023/06/24 10:44:24;;;;;;;;;;;;;;;;;;5011299;28;19933;-62
2023/06/24 10:46:50;;;;;;;;;;;;;;;;;;5011492;28;19926;-62
2023/06/24 10:49:16;;;;;;;;;;;;;;;;;;5012694;28;19926;-62
2023/06/24 10:51:42;;;;;;;;;;;;;;;;;;5010381;28;19922;-62
2023/06/24 10:54:08;;;;;;;;;;;;;;;;;;5011267;28;19944;-62
2023/06/24 10:56:34;;;;;;;;;;;;;;;;;;5010873;28;19929;-62
2023/06/24 10:59:00;;;;;;;;;;;;;;;;;;5009603;28;20318;-62
2023/06/24 11:01:26;;;;;;;;;;;;;;;;;;5009743;28;19921;-62
2023/06/24 11:03:52;;;;;;;;;;;;;;;;;;5009327;28;19921;-62
2023/06/24 11:06:17;;;;;;;;;;;;;;;;;;5009070;28;19955;-62
2023/06/24 11:08:43;;;;;;;;;;;;;;;;;;5010820;28;19936;-62
2023/06/24 11:11:09;;;;;;;;;;;;;;;;;;5012347;28;19952;-62
2023/06/24 11:13:35;;;;;;;;;;;;;;;;;;5011236;28;19967;-61
2023/06/24 11:16:01;;;;;;;;;;;;;;;;;;4992597;28;19921;-62
2023/06/24 11:18:27;;;;;;;;;;;;;;;;;;5010907;28;19971;-62
2023/06/24 11:20:53;;;;;;;;;;;;;;;;;;5002230;28;20437;-61
2023/06/24 11:23:19;;;;;;;;;;;;;;;;;;5008401;28;19926;-59
2023/06/24 11:25:44;;;;;;;;;;;;;;;;;;5008197;28;20680;-60
2023/06/24 11:28:10;;;;;;;;;;;;;;;;;;4975540;28;19925;-61
2023/06/24 11:30:36;;;;;;;;;;;;;;;;;;5009583;28;19921;-60
2023/06/24 11:33:02;;;;;;;;;;;;;;;;;;5011252;28;19991;-60
2023/06/24 11:35:29;;;;;;;;;;;;;;;;;;5008742;28;19921;-60
2023/06/24 11:37:55;;;;;;;;;;;;;;;;;;4992688;28;20410;-60
2023/06/24 11:40:21;;;;;;;;;;;;;;;;;;4990839;28;19929;-60
2023/06/24 11:42:48;;;;;;;;;;;;;;;;;;5012019;28;19960;-61
2023/06/24 11:45:16;;;;;;;;;;;;;;;;;;5009557;28;19929;-61
2023/06/24 11:47:42;;;;;;;;;;;;;;;;;;5010668;28;20053;-61
2023/06/24 11:50:09;;;;;;;;;;;;;;;;;;4992427;28;20031;-61
2023/06/24 11:52:34;;;;;;;;;;;;;;;;;;5005674;28;19933;-61
2023/06/24 11:55:00;;;;;;;;;;;;;;;;;;5009706;28;19933;-61
2023/06/24 11:57:26;;;;;;;;;;;;;;;;;;5013392;28;19921;-61
2023/06/24 11:59:52;;;;;;;;;;;;;;;;;;5011654;28;19932;-60
2023/06/24 12:02:18;;;;;;;;;;;;;;;;;;4986790;28;20279;-61
2023/06/24 12:04:44;;;;;;;;;;;;;;;;;;5010715;28;20382;-60
2023/06/24 12:07:10;;;;;;;;;;;;;;;;;;5006859;28;19925;-61
2023/06/24 12:09:36;;;;;;;;;;;;;;;;;;4994044;28;20379;-61
2023/06/24 12:12:02;;;;;;;;;;;;;;;;;;5013552;28;19964;-61
2023/06/24 12:14:27;;;;;;;;;;;;;;;;;;4995829;28;20130;-61
2023/06/24 12:16:53;;;;;;;;;;;;;;;;;;5009625;28;19929;-61
2023/06/24 12:19:21;;;;;;;;;;;;;;;;;;5011265;28;19994;-61
2023/06/24 12:21:47;;;;;;;;;;;;;;;;;;5009037;28;19926;-61
2023/06/24 12:24:13;;;;;;;;;;;;;;;;;;5012357;28;19932;-61
2023/06/24 12:26:39;;;;;;;;;;;;;;;;;;4994630;28;19922;-61
2023/06/24 12:29:05;;;;;;;;;;;;;;;;;;4992306;28;19921;-59
2023/06/24 12:31:31;;;;;;;;;;;;;;;;;;4993539;28;19957;-60
2023/06/24 12:33:57;;;;;;;;;;;;;;;;;;4996210;28;19929;-60
2023/06/24 12:36:23;;;;;;;;;;;;;;;;;;4994242;28;19928;-60
2023/06/24 12:38:49;;;;;;;;;;;;;;;;;;5013444;28;19944;-60
2023/06/24 12:41:15;;;;;;;;;;;;;;;;;;5014413;28;19933;-60
2023/06/24 12:43:41;;;;;;;;;;;;;;;;;;5011656;28;19976;-59
2023/06/24 12:46:06;;;;;;;;;;;;;;;;;;5004274;28;19971;-60
2023/06/24 12:48:32;;;;;;;;;;;;;;;;;;5011101;28;20001;-60
2023/06/24 12:50:58;;;;;;;;;;;;;;;;;;5006671;28;19925;-60
2023/06/24 12:53:24;;;;;;;;;;;;;;;;;;5008507;28;19965;-60
2023/06/24 12:55:50;;;;;;;;;;;;;;;;;;5010691;28;20584;-60
2023/06/24 12:58:16;;;;;;;;;;;;;;;;;;5008971;28;19932;-60
2023/06/24 13:00:42;;;;;;;;;;;;;;;;;;5007224;28;20007;-60
2023/06/24 13:03:08;;;;;;;;;;;;;;;;;;4994429;28;19932;-60
2023/06/24 13:05:34;;;;;;;;;;;;;;;;;;5018998;22;20024;-63
2023/06/24 13:08:00;;;;;;;;;;;;;;;;;;5042098;28;19924;-63
2023/06/24 13:10:26;;;;;;;;;;;;;;;;;;5043027;28;19925;-63
2023/06/24 13:12:52;;;;;;;;;;;;;;;;;;5050343;28;19993;-63
2023/06/24 13:15:18;;;;;;;;;;;;;;;;;;5017039;28;19924;-65
2023/06/24 13:17:44;;;;;;;;;;;;;;;;;;5051246;28;20006;-66
2023/06/24 13:20:10;;;;;;;;;;;;;;;;;;5052379;28;20405;-66
2023/06/24 13:22:36;;;;;;;;;;;;;;;;;;5037857;28;19925;-66
2023/06/24 13:25:02;;;;;;;;;;;;;;;;;;5050806;28;19921;-65
2023/06/24 13:27:27;;;;;;;;;;;;;;;;;;5045516;28;20385;-65
2023/06/24 13:29:53;;;;;;;;;;;;;;;;;;5048203;28;19933;-66
2023/06/24 13:32:19;;;;;;;;;;;;;;;;;;5044146;28;19956;-66
2023/06/24 13:34:45;;;;;;;;;;;;;;;;;;5043514;28;20364;-66
2023/06/24 13:37:11;;;;;;;;;;;;;;;;;;5036864;28;20525;-65
2023/06/24 13:39:37;;;;;;;;;;;;;;;;;;5048686;28;19925;-65
2023/06/24 13:42:03;;;;;;;;;;;;;;;;;;5015910;28;20359;-65
2023/06/24 13:44:29;;;;;;;;;;;;;;;;;;5047311;28;19921;-65
2023/06/24 13:46:55;;;;;;;;;;;;;;;;;;5033788;28;19921;-65
2023/06/24 13:49:21;;;;;;;;;;;;;;;;;;5039166;28;19975;-65
2023/06/24 13:51:47;;;;;;;;;;;;;;;;;;5044903;28;19975;-65
2023/06/24 13:54:12;;;;;;;;;;;;;;;;;;5053167;28;19999;-65
2023/06/24 13:56:38;;;;;;;;;;;;;;;;;;5035680;28;19928;-65
2023/06/24 13:59:04;;;;;;;;;;;;;;;;;;5034809;28;19929;-65
2023/06/24 14:01:31;;;;;;;;;;;;;;;;;;5053431;28;19924;-65
2023/06/24 14:03:57;;;;;;;;;;;;;;;;;;5053446;28;19921;-65
2023/06/24 14:06:23;;;;;;;;;;;;;;;;;;5035455;28;19928;-65
2023/06/24 14:08:48;;;;;;;;;;;;;;;;;;5035242;28;19951;-65
2023/06/24 14:11:14;;;;;;;;;;;;;;;;;;5034819;28;19928;-65
2023/06/24 14:13:40;;;;;;;;;;;;;;;;;;5053394;28;19925;-65
2023/06/24 14:16:06;;;;;;;;;;;;;;;;;;5016963;28;20382;-65
2023/06/24 14:18:32;;;;;;;;;;;;;;;;;;5029134;28;19932;-64
2023/06/24 14:20:58;;;;;;;;;;;;;;;;;;5034505;28;20315;-65
2023/06/24 14:23:27;;;;;;;;;;;;;;;;;;5051725;28;19978;-65
2023/06/24 14:25:53;;;;;;;;;;;;;;;;;;5029252;28;19921;-65
2023/06/24 14:28:19;;;;;;;;;;;;;;;;;;5030931;28;19932;-65
2023/06/24 14:30:45;;;;;;;;;;;;;;;;;;5031348;28;19925;-65
2023/06/24 14:33:11;;;;;;;;;;;;;;;;;;5049274;28;19967;-65
2023/06/24 14:35:37;;;;;;;;;;;;;;;;;;5049811;28;20018;-65
2023/06/24 14:38:03;;;;;;;;;;;;;;;;;;5052998;28;19920;-67
2023/06/24 14:40:29;;;;;;;;;;;;;;;;;;5032722;28;19927;-67
2023/06/24 14:42:55;;;;;;;;;;;;;;;;;;5029661;28;19924;-67
2023/06/24 14:45:21;;;;;;;;;;;;;;;;;;5049384;28;19935;-67
2023/06/24 14:47:47;;;;;;;;;;;;;;;;;;5016569;28;20271;-67
2023/06/24 14:50:13;;;;;;;;;;;;;;;;;;5049633;28;19921;-62
2023/06/24 14:52:38;;;;;;;;;;;;;;;;;;5049046;28;19967;-62
2023/06/24 14:55:04;;;;;;;;;;;;;;;;;;5052570;28;19952;-62
2023/06/24 14:57:30;;;;;;;;;;;;;;;;;;5046207;28;19979;-62
2023/06/24 14:59:56;;;;;;;;;;;;;;;;;;5045440;28;19955;-62
2023/06/24 15:02:22;;;;;;;;;;;;;;;;;;5049623;28;19924;-61
2023/06/24 15:04:48;;;;;;;;;;;;;;;;;;5014733;28;19925;-61
2023/06/24 15:07:14;;;;;;;;;;;;;;;;;;5032959;28;19978;-63
2023/06/24 15:09:40;;;;;;;;;;;;;;;;;;5052236;28;19925;-63
2023/06/24 15:12:06;;;;;;;;;;;;;;;;;;5014125;28;19975;-63
2023/06/24 15:14:32;;;;;;;;;;;;;;;;;;5047887;28;19925;-61
2023/06/24 15:16:58;;;;;;;;;;;;;;;;;;5044175;28;19929;-61
2023/06/24 15:19:24;;;;;;;;;;;;;;;;;;5047574;28;19921;-61
2023/06/24 15:21:50;;;;;;;;;;;;;;;;;;5040207;28;19932;-61
2023/06/24 15:24:16;;;;;;;;;;;;;;;;;;5042883;28;20333;-61
2023/06/24 15:26:42;;;;;;;;;;;;;;;;;;5025391;28;19964;-61
2023/06/24 15:29:08;;;;;;;;;;;;;;;;;;5045718;28;20418;-61
2023/06/24 15:31:33;;;;;;;;;;;;;;;;;;5045518;28;19932;-62
2023/06/24 15:33:59;;;;;;;;;;;;;;;;;;5046846;28;20082;-61
2023/06/24 15:36:27;;;;;;;;;;;;;;;;;;5041105;28;19975;-62
2023/06/24 15:38:53;;;;;;;;;;;;;;;;;;5040376;28;19920;-62
2023/06/24 15:41:19;;;;;;;;;;;;;;;;;;5044130;28;19921;-62
2023/06/24 15:43:45;;;;;;;;;;;;;;;;;;5043131;28;19948;-62
2023/06/24 15:46:11;;;;;;;;;;;;;;;;;;5043977;28;19929;-62
2023/06/24 15:48:37;;;;;;;;;;;;;;;;;;5045526;28;19928;-62
2023/06/24 15:51:03;;;;;;;;;;;;;;;;;;5041447;28;20007;-62
2023/06/24 15:53:29;;;;;;;;;;;;;;;;;;5044734;28;20039;-62
2023/06/24 15:55:55;;;;;;;;;;;;;;;;;;5042578;28;20660;-62
2023/06/24 15:58:20;;;;;;;;;;;;;;;;;;5024702;28;19988;-62
2023/06/24 16:00:46;;;;;;;;;;;;;;;;;;5044265;28;20285;-62
2023/06/24 16:03:12;;;;;;;;;;;;;;;;;;5044461;28;19933;-65
2023/06/24 16:05:38;;;;;;;;;;;;;;;;;;5028977;28;19947;-64
2023/06/24 16:08:04;;;;;;;;;;;;;;;;;;5043210;28;19925;-65
2023/06/24 16:10:30;;;;;;;;;;;;;;;;;;5028605;28;19925;-65
2023/06/24 16:12:56;;;;;;;;;;;;;;;;;;5044815;28;19991;-65
2023/06/24 16:15:22;;;;;;;;;;;;;;;;;;5044070;28;19932;-65
2023/06/24 16:17:48;;;;;;;;;;;;;;;;;;5042761;28;20370;-65
2023/06/24 16:20:16;;;;;;;;;;;;;;;;;;5043219;28;19928;-65
2023/06/24 16:22:42;;;;;;;;;;;;;;;;;;5043718;28;19925;-65
2023/06/24 16:25:08;;;;;;;;;;;;;;;;;;5047294;28;19928;-65
2023/06/24 16:27:34;;;;;;;;;;;;;;;;;;5043629;28;19929;-66
2023/06/24 16:29:59;;;;;;;;;;;;;;;;;;5043853;28;19947;-65
2023/06/24 16:32:25;;;;;;;;;;;;;;;;;;5046631;28;19956;-65
2023/06/24 16:34:51;;;;;;;;;;;;;;;;;;5050472;28;20583;-66
2023/06/24 16:37:17;;;;;;;;;;;;;;;;;;5050289;28;19947;-60